sensor_id;sensor_type;location;lat;lon;timestamp;temperature;humidity
8611;DHT22;4343;53.648;10.098;2023-05-14T13:03:03;24.50;79.90
8611;DHT22;4343;53.648;10.098;2023-05-14T13:16:31;21.80;87.50
8611;DHT22;4343;53.648;10.098;2023-05-14T13:18:56;22.10;85.80
8611;DHT22;4343;53.648;10.098;2023-05-14T13:30:04;23.00;76.70
8611;DHT22;4343;53.648;10.098;2023-05-14T13:32:30;23.10;82.40
8611;DHT22;4343;53.648;10.098;2023-05-14T13:34:55;23.10;82.60
8611;DHT22;4343;53.648;10.098;2023-05-14T13:37:21;22.90;80.80
8611;DHT22;4343;53.648;10.098;2023-05-14T13:39:47;22.80;80.20
8611;DHT22;4343;53.648;10.098;2023-05-14T13:42:12;22.70;77.70
8611;DHT22;4343;53.648;10.098;2023-05-14T13:44:38;22.50;77.60
8611;DHT22;4343;53.648;10.098;2023-05-14T13:47:03;22.30;78.20
8611;DHT22;4343;53.648;10.098;2023-05-14T13:49:29;22.30;79.30
8611;DHT22;4343;53.648;10.098;2023-05-14T13:51:54;22.10;80.10
8611;DHT22;4343;53.648;10.098;2023-05-14T13:54:21;22.00;80.60
8611;DHT22;4343;53.648;10.098;2023-05-14T13:56:46;21.90;80.50
8611;DHT22;4343;53.648;10.098;2023-05-14T13:59:12;21.90;80.20
8611;DHT22;4343;53.648;10.098;2023-05-14T14:01:38;21.80;80.00
8611;DHT22;4343;53.648;10.098;2023-05-14T14:04:04;21.80;80.60
8611;DHT22;4343;53.648;10.098;2023-05-14T14:06:30;21.70;81.00
8611;DHT22;4343;53.648;10.098;2023-05-14T14:08:59;21.70;82.70
8611;DHT22;4343;53.648;10.098;2023-05-14T14:11:25;21.70;81.80
8611;DHT22;4343;53.648;10.098;2023-05-14T14:13:50;21.70;81.30
8611;DHT22;4343;53.648;10.098;2023-05-14T14:16:16;21.70;81.20
8611;DHT22;4343;53.648;10.098;2023-05-14T14:18:42;21.70;80.20
8611;DHT22;4343;53.648;10.098;2023-05-14T14:21:08;21.80;79.60
8611;DHT22;4343;53.648;10.098;2023-05-14T14:23:34;21.80;80.20
8611;DHT22;4343;53.648;10.098;2023-05-14T14:25:59;21.90;80.90
8611;DHT22;4343;53.648;10.098;2023-05-14T14:28:25;21.90;81.10
8611;DHT22;4343;53.648;10.098;2023-05-14T14:30:50;21.90;81.60
8611;DHT22;4343;53.648;10.098;2023-05-14T14:33:16;21.90;81.60
8611;DHT22;4343;53.648;10.098;2023-05-14T14:35:41;22.00;81.20
8611;DHT22;4343;53.648;10.098;2023-05-14T14:38:07;22.00;81.10
8611;DHT22;4343;53.648;10.098;2023-05-14T14:40:33;22.00;81.70
8611;DHT22;4343;53.648;10.098;2023-05-14T14:43:00;22.00;81.30
8611;DHT22;4343;53.648;10.098;2023-05-14T14:45:26;22.00;81.60
8611;DHT22;4343;53.648;10.098;2023-05-14T14:50:53;22.00;81.00
8611;DHT22;4343;53.648;10.098;2023-05-14T14:53:20;21.90;80.50
8611;DHT22;4343;53.648;10.098;2023-05-14T14:55:47;21.90;80.90
8611;DHT22;4343;53.648;10.098;2023-05-14T14:58:12;21.90;80.40
8611;DHT22;4343;53.648;10.098;2023-05-14T15:00:38;21.90;79.80
8611;DHT22;4343;53.648;10.098;2023-05-14T15:03:04;21.80;79.00
8611;DHT22;4343;53.648;10.098;2023-05-14T15:05:30;21.80;78.60
8611;DHT22;4343;53.648;10.098;2023-05-14T15:07:56;21.80;78.60
8611;DHT22;4343;53.648;10.098;2023-05-14T15:10:21;21.80;79.10
8611;DHT22;4343;53.648;10.098;2023-05-14T15:12:46;21.70;79.40
8611;DHT22;4343;53.648;10.098;2023-05-14T15:15:12;21.70;79.90
8611;DHT22;4343;53.648;10.098;2023-05-14T15:17:38;21.70;80.60
8611;DHT22;4343;53.648;10.098;2023-05-14T15:20:04;21.60;80.50
8611;DHT22;4343;53.648;10.098;2023-05-14T15:22:31;21.60;80.40
8611;DHT22;4343;53.648;10.098;2023-05-14T15:24:57;21.60;80.50
8611;DHT22;4343;53.648;10.098;2023-05-14T15:27:22;21.60;80.80
8611;DHT22;4343;53.648;10.098;2023-05-14T15:29:48;21.50;80.10
8611;DHT22;4343;53.648;10.098;2023-05-14T15:32:13;21.50;79.60
8611;DHT22;4343;53.648;10.098;2023-05-14T15:34:40;21.40;78.80
8611;DHT22;4343;53.648;10.098;2023-05-14T15:37:06;21.30;79.10
8611;DHT22;4343;53.648;10.098;2023-05-14T15:39:31;21.30;78.80
8611;DHT22;4343;53.648;10.098;2023-05-14T15:41:57;21.20;79.50
8611;DHT22;4343;53.648;10.098;2023-05-14T15:44:22;21.20;80.40
8611;DHT22;4343;53.648;10.098;2023-05-14T15:46:48;21.10;82.00
8611;DHT22;4343;53.648;10.098;2023-05-14T15:49:13;21.10;82.10
8611;DHT22;4343;53.648;10.098;2023-05-14T15:51:39;21.00;82.40
8611;DHT22;4343;53.648;10.098;2023-05-14T15:54:05;21.00;82.20
8611;DHT22;4343;53.648;10.098;2023-05-14T15:56:30;20.90;78.70
8611;DHT22;4343;53.648;10.098;2023-05-14T15:58:56;20.70;77.70
8611;DHT22;4343;53.648;10.098;2023-05-14T16:01:21;20.60;78.80
8611;DHT22;4343;53.648;10.098;2023-05-14T16:03:47;20.60;80.10
8611;DHT22;4343;53.648;10.098;2023-05-14T16:06:12;20.60;80.20
8611;DHT22;4343;53.648;10.098;2023-05-14T16:08:38;20.60;79.70
8611;DHT22;4343;53.648;10.098;2023-05-14T16:11:03;20.60;81.80
8611;DHT22;4343;53.648;10.098;2023-05-14T16:13:30;20.60;83.60
8611;DHT22;4343;53.648;10.098;2023-05-14T16:15:56;20.60;83.80
8611;DHT22;4343;53.648;10.098;2023-05-14T16:18:21;20.50;83.60
8611;DHT22;4343;53.648;10.098;2023-05-14T16:20:49;20.50;83.80
8611;DHT22;4343;53.648;10.098;2023-05-14T16:23:15;20.60;83.40
8611;DHT22;4343;53.648;10.098;2023-05-14T16:25:40;20.60;80.60
8611;DHT22;4343;53.648;10.098;2023-05-14T16:28:06;20.60;80.00
8611;DHT22;4343;53.648;10.098;2023-05-14T16:30:32;20.60;80.20
8611;DHT22;4343;53.648;10.098;2023-05-14T16:32:57;20.60;79.20
8611;DHT22;4343;53.648;10.098;2023-05-14T16:35:23;20.60;80.20
8611;DHT22;4343;53.648;10.098;2023-05-14T16:37:48;20.60;80.20
8611;DHT22;4343;53.648;10.098;2023-05-14T16:40:14;20.50;80.10
8611;DHT22;4343;53.648;10.098;2023-05-14T16:42:40;20.50;80.70
8611;DHT22;4343;53.648;10.098;2023-05-14T16:45:06;20.50;81.50
8611;DHT22;4343;53.648;10.098;2023-05-14T16:47:32;20.40;82.20
8611;DHT22;4343;53.648;10.098;2023-05-14T16:49:57;20.30;83.40
8611;DHT22;4343;53.648;10.098;2023-05-14T16:52:23;20.30;84.10
8611;DHT22;4343;53.648;10.098;2023-05-14T16:54:48;20.30;84.80
8611;DHT22;4343;53.648;10.098;2023-05-14T16:57:14;20.20;85.20
8611;DHT22;4343;53.648;10.098;2023-05-14T16:59:39;20.20;84.30
8611;DHT22;4343;53.648;10.098;2023-05-14T17:02:05;20.10;84.80
8611;DHT22;4343;53.648;10.098;2023-05-14T17:04:31;20.00;84.30
8611;DHT22;4343;53.648;10.098;2023-05-14T17:06:57;19.90;84.50
8611;DHT22;4343;53.648;10.098;2023-05-14T17:09:23;19.90;84.80
8611;DHT22;4343;53.648;10.098;2023-05-14T17:11:48;19.80;83.90
8611;DHT22;4343;53.648;10.098;2023-05-14T17:14:15;19.80;84.40
8611;DHT22;4343;53.648;10.098;2023-05-14T17:16:40;19.70;84.10
8611;DHT22;4343;53.648;10.098;2023-05-14T17:19:06;19.70;83.60
8611;DHT22;4343;53.648;10.098;2023-05-14T17:21:32;19.70;82.80
8611;DHT22;4343;53.648;10.098;2023-05-14T17:23:58;19.60;83.60
8611;DHT22;4343;53.648;10.098;2023-05-14T17:26:23;19.60;83.60
8611;DHT22;4343;53.648;10.098;2023-05-14T17:28:49;19.50;84.00
8611;DHT22;4343;53.648;10.098;2023-05-14T17:31:14;19.50;83.70
8611;DHT22;4343;53.648;10.098;2023-05-14T17:33:40;19.40;84.10
8611;DHT22;4343;53.648;10.098;2023-05-14T17:36:05;19.40;84.50
8611;DHT22;4343;53.648;10.098;2023-05-14T17:38:31;19.30;85.10
8611;DHT22;4343;53.648;10.098;2023-05-14T17:40:56;19.30;85.60
8611;DHT22;4343;53.648;10.098;2023-05-14T17:43:22;19.30;85.50
8611;DHT22;4343;53.648;10.098;2023-05-14T17:45:47;19.20;85.30
8611;DHT22;4343;53.648;10.098;2023-05-14T17:48:13;19.20;86.20
8611;DHT22;4343;53.648;10.098;2023-05-14T17:50:38;19.20;86.10
8611;DHT22;4343;53.648;10.098;2023-05-14T17:53:04;19.10;85.70
8611;DHT22;4343;53.648;10.098;2023-05-14T17:55:30;19.10;85.90
8611;DHT22;4343;53.648;10.098;2023-05-14T17:57:55;19.10;85.70
8611;DHT22;4343;53.648;10.098;2023-05-14T18:00:21;19.10;86.10
8611;DHT22;4343;53.648;10.098;2023-05-14T18:02:46;19.00;86.30
8611;DHT22;4343;53.648;10.098;2023-05-14T18:05:12;18.90;86.10
8611;DHT22;4343;53.648;10.098;2023-05-14T18:07:37;19.00;86.50
8611;DHT22;4343;53.648;10.098;2023-05-14T18:10:03;18.90;86.80
8611;DHT22;4343;53.648;10.098;2023-05-14T18:12:29;18.90;86.90
8611;DHT22;4343;53.648;10.098;2023-05-14T18:14:54;18.80;87.20
8611;DHT22;4343;53.648;10.098;2023-05-14T18:17:20;18.80;87.70
8611;DHT22;4343;53.648;10.098;2023-05-14T18:19:45;18.80;87.70
8611;DHT22;4343;53.648;10.098;2023-05-14T18:22:11;18.70;87.60
8611;DHT22;4343;53.648;10.098;2023-05-14T18:24:37;18.70;88.30
8611;DHT22;4343;53.648;10.098;2023-05-14T18:27:02;18.60;88.10
8611;DHT22;4343;53.648;10.098;2023-05-14T18:29:28;18.60;88.80
8611;DHT22;4343;53.648;10.098;2023-05-14T18:31:53;18.50;89.70
8611;DHT22;4343;53.648;10.098;2023-05-14T18:34:19;18.50;90.00
8611;DHT22;4343;53.648;10.098;2023-05-14T18:36:44;18.50;90.30
8611;DHT22;4343;53.648;10.098;2023-05-14T18:39:10;18.50;90.30
8611;DHT22;4343;53.648;10.098;2023-05-14T18:41:35;18.40;90.40
8611;DHT22;4343;53.648;10.098;2023-05-14T18:44:01;18.40;90.40
8611;DHT22;4343;53.648;10.098;2023-05-14T18:46:27;18.40;90.40
8611;DHT22;4343;53.648;10.098;2023-05-14T18:48:54;18.40;90.70
8611;DHT22;4343;53.648;10.098;2023-05-14T18:51:20;18.40;90.90
8611;DHT22;4343;53.648;10.098;2023-05-14T18:53:45;18.30;91.10
8611;DHT22;4343;53.648;10.098;2023-05-14T18:56:11;18.20;91.30
8611;DHT22;4343;53.648;10.098;2023-05-14T18:58:36;18.20;91.50
8611;DHT22;4343;53.648;10.098;2023-05-14T19:01:02;18.20;91.80
8611;DHT22;4343;53.648;10.098;2023-05-14T19:03:27;18.10;91.80
8611;DHT22;4343;53.648;10.098;2023-05-14T19:05:53;18.10;92.10
8611;DHT22;4343;53.648;10.098;2023-05-14T19:08:18;18.10;92.20
8611;DHT22;4343;53.648;10.098;2023-05-14T19:10:44;18.00;92.40
8611;DHT22;4343;53.648;10.098;2023-05-14T19:13:09;18.00;92.60
8611;DHT22;4343;53.648;10.098;2023-05-14T19:15:36;17.90;92.70
8611;DHT22;4343;53.648;10.098;2023-05-14T19:18:01;17.90;92.90
8611;DHT22;4343;53.648;10.098;2023-05-14T19:20:27;17.80;93.00
8611;DHT22;4343;53.648;10.098;2023-05-14T19:22:52;17.80;93.20
8611;DHT22;4343;53.648;10.098;2023-05-14T19:25:18;17.70;93.40
8611;DHT22;4343;53.648;10.098;2023-05-14T19:27:43;17.70;93.60
8611;DHT22;4343;53.648;10.098;2023-05-14T19:30:10;17.60;93.70
8611;DHT22;4343;53.648;10.098;2023-05-14T19:32:36;17.60;93.90
8611;DHT22;4343;53.648;10.098;2023-05-14T19:35:03;17.50;94.10
8611;DHT22;4343;53.648;10.098;2023-05-14T19:37:29;17.50;94.40
8611;DHT22;4343;53.648;10.098;2023-05-14T19:39:54;17.40;94.50
8611;DHT22;4343;53.648;10.098;2023-05-14T19:42:20;17.30;94.70
8611;DHT22;4343;53.648;10.098;2023-05-14T19:44:45;17.30;94.80
8611;DHT22;4343;53.648;10.098;2023-05-14T19:47:11;17.20;94.90
8611;DHT22;4343;53.648;10.098;2023-05-14T19:49:36;17.20;95.20
8611;DHT22;4343;53.648;10.098;2023-05-14T19:52:02;17.10;95.30
8611;DHT22;4343;53.648;10.098;2023-05-14T19:54:27;17.00;95.40
8611;DHT22;4343;53.648;10.098;2023-05-14T19:56:53;17.00;95.70
8611;DHT22;4343;53.648;10.098;2023-05-14T19:59:19;16.90;95.90
8611;DHT22;4343;53.648;10.098;2023-05-14T20:01:44;16.90;96.10
8611;DHT22;4343;53.648;10.098;2023-05-14T20:04:10;16.80;96.20
8611;DHT22;4343;53.648;10.098;2023-05-14T20:06:38;16.70;96.30
8611;DHT22;4343;53.648;10.098;2023-05-14T20:09:04;16.80;96.50
8611;DHT22;4343;53.648;10.098;2023-05-14T20:11:30;16.70;96.70
8611;DHT22;4343;53.648;10.098;2023-05-14T20:13:55;16.60;96.80
8611;DHT22;4343;53.648;10.098;2023-05-14T20:16:21;16.60;97.00
8611;DHT22;4343;53.648;10.098;2023-05-14T20:18:47;16.50;97.10
8611;DHT22;4343;53.648;10.098;2023-05-14T20:21:13;16.50;97.20
8611;DHT22;4343;53.648;10.098;2023-05-14T20:23:39;16.50;97.40
8611;DHT22;4343;53.648;10.098;2023-05-14T20:26:04;16.40;97.60
8611;DHT22;4343;53.648;10.098;2023-05-14T20:28:30;16.40;97.80
8611;DHT22;4343;53.648;10.098;2023-05-14T20:30:55;16.30;97.90
8611;DHT22;4343;53.648;10.098;2023-05-14T20:33:23;16.30;98.20
8611;DHT22;4343;53.648;10.098;2023-05-14T20:35:48;16.30;98.40
8611;DHT22;4343;53.648;10.098;2023-05-14T20:38:15;16.20;98.50
8611;DHT22;4343;53.648;10.098;2023-05-14T20:40:42;16.20;98.70
8611;DHT22;4343;53.648;10.098;2023-05-14T20:43:09;16.20;98.90
8611;DHT22;4343;53.648;10.098;2023-05-14T20:45:35;16.20;98.90
8611;DHT22;4343;53.648;10.098;2023-05-14T20:48:00;16.20;99.00
8611;DHT22;4343;53.648;10.098;2023-05-14T20:50:26;16.10;99.20
8611;DHT22;4343;53.648;10.098;2023-05-14T20:52:52;16.10;99.40
8611;DHT22;4343;53.648;10.098;2023-05-14T20:55:18;16.00;99.60
8611;DHT22;4343;53.648;10.098;2023-05-14T20:57:44;16.00;99.80
8611;DHT22;4343;53.648;10.098;2023-05-14T21:00:10;16.00;99.90
8611;DHT22;4343;53.648;10.098;2023-05-14T21:02:35;15.90;99.90
8611;DHT22;4343;53.648;10.098;2023-05-14T21:05:01;15.90;99.90
8611;DHT22;4343;53.648;10.098;2023-05-14T21:07:27;15.90;99.90
8611;DHT22;4343;53.648;10.098;2023-05-14T21:09:52;15.80;99.90
8611;DHT22;4343;53.648;10.098;2023-05-14T21:12:18;15.70;99.90
8611;DHT22;4343;53.648;10.098;2023-05-14T21:14:43;15.70;99.90
8611;DHT22;4343;53.648;10.098;2023-05-14T21:17:09;15.70;99.90
8611;DHT22;4343;53.648;10.098;2023-05-14T21:19:35;15.60;99.90
8611;DHT22;4343;53.648;10.098;2023-05-14T21:22:00;15.60;99.90
8611;DHT22;4343;53.648;10.098;2023-05-14T21:24:26;15.50;99.90
8611;DHT22;4343;53.648;10.098;2023-05-14T21:26:52;15.50;99.90
8611;DHT22;4343;53.648;10.098;2023-05-14T21:29:17;15.50;99.90
8611;DHT22;4343;53.648;10.098;2023-05-14T21:31:43;15.40;99.90
8611;DHT22;4343;53.648;10.098;2023-05-14T21:34:08;15.40;99.90
8611;DHT22;4343;53.648;10.098;2023-05-14T21:36:34;15.30;99.90
8611;DHT22;4343;53.648;10.098;2023-05-14T21:38:59;15.30;99.90
8611;DHT22;4343;53.648;10.098;2023-05-14T21:41:25;15.20;99.90
8611;DHT22;4343;53.648;10.098;2023-05-14T21:43:50;15.20;99.90
8611;DHT22;4343;53.648;10.098;2023-05-14T21:46:16;15.10;99.90
8611;DHT22;4343;53.648;10.098;2023-05-14T21:48:42;15.10;99.90
8611;DHT22;4343;53.648;10.098;2023-05-14T21:51:08;15.10;99.90
8611;DHT22;4343;53.648;10.098;2023-05-14T21:53:33;15.00;99.90
8611;DHT22;4343;53.648;10.098;2023-05-14T21:55:59;15.00;99.90
8611;DHT22;4343;53.648;10.098;2023-05-14T21:58:25;15.00;99.90
8611;DHT22;4343;53.648;10.098;2023-05-14T22:00:51;14.90;99.90
8611;DHT22;4343;53.648;10.098;2023-05-14T22:03:16;14.90;99.90
8611;DHT22;4343;53.648;10.098;2023-05-14T22:05:42;14.80;99.90
8611;DHT22;4343;53.648;10.098;2023-05-14T22:08:07;14.80;99.90
8611;DHT22;4343;53.648;10.098;2023-05-14T22:10:33;14.80;99.90
8611;DHT22;4343;53.648;10.098;2023-05-14T22:12:59;14.80;99.90
8611;DHT22;4343;53.648;10.098;2023-05-14T22:15:24;14.80;99.90
8611;DHT22;4343;53.648;10.098;2023-05-14T22:17:50;14.70;99.90
8611;DHT22;4343;53.648;10.098;2023-05-14T22:20:15;14.70;99.90
8611;DHT22;4343;53.648;10.098;2023-05-14T22:22:41;14.60;99.90
8611;DHT22;4343;53.648;10.098;2023-05-14T22:25:07;14.60;99.90
8611;DHT22;4343;53.648;10.098;2023-05-14T22:27:33;14.60;99.90
8611;DHT22;4343;53.648;10.098;2023-05-14T22:29:58;14.60;99.90
8611;DHT22;4343;53.648;10.098;2023-05-14T22:32:24;14.60;99.90
8611;DHT22;4343;53.648;10.098;2023-05-14T22:34:50;14.50;99.90
8611;DHT22;4343;53.648;10.098;2023-05-14T22:37:17;14.50;99.90
8611;DHT22;4343;53.648;10.098;2023-05-14T22:39:42;14.50;99.90
8611;DHT22;4343;53.648;10.098;2023-05-14T22:42:08;14.50;99.90
8611;DHT22;4343;53.648;10.098;2023-05-14T22:44:33;14.50;99.90
8611;DHT22;4343;53.648;10.098;2023-05-14T22:47:02;14.40;99.90
8611;DHT22;4343;53.648;10.098;2023-05-14T22:49:29;14.40;99.90
8611;DHT22;4343;53.648;10.098;2023-05-14T22:51:55;14.40;99.90
8611;DHT22;4343;53.648;10.098;2023-05-14T22:54:20;14.40;99.90
8611;DHT22;4343;53.648;10.098;2023-05-14T22:56:46;14.30;99.90
8611;DHT22;4343;53.648;10.098;2023-05-14T22:59:12;14.30;99.90
8611;DHT22;4343;53.648;10.098;2023-05-14T23:01:37;14.30;99.90
8611;DHT22;4343;53.648;10.098;2023-05-14T23:04:03;14.30;99.90
8611;DHT22;4343;53.648;10.098;2023-05-14T23:06:29;14.20;99.90
8611;DHT22;4343;53.648;10.098;2023-05-14T23:08:54;14.20;99.90
8611;DHT22;4343;53.648;10.098;2023-05-14T23:11:20;14.20;99.90
8611;DHT22;4343;53.648;10.098;2023-05-14T23:13:46;14.10;99.90
8611;DHT22;4343;53.648;10.098;2023-05-14T23:16:12;14.10;99.90
8611;DHT22;4343;53.648;10.098;2023-05-14T23:18:37;14.10;99.90
8611;DHT22;4343;53.648;10.098;2023-05-14T23:21:03;14.00;99.90
8611;DHT22;4343;53.648;10.098;2023-05-14T23:23:28;14.00;99.90
8611;DHT22;4343;53.648;10.098;2023-05-14T23:25:54;13.90;99.90
8611;DHT22;4343;53.648;10.098;2023-05-14T23:28:20;13.90;99.90
8611;DHT22;4343;53.648;10.098;2023-05-14T23:30:45;13.90;99.90
8611;DHT22;4343;53.648;10.098;2023-05-14T23:33:11;13.80;99.90
8611;DHT22;4343;53.648;10.098;2023-05-14T23:35:37;13.80;99.90
8611;DHT22;4343;53.648;10.098;2023-05-14T23:38:03;13.70;99.90
8611;DHT22;4343;53.648;10.098;2023-05-14T23:40:29;13.70;99.90
8611;DHT22;4343;53.648;10.098;2023-05-14T23:42:55;13.70;99.90
8611;DHT22;4343;53.648;10.098;2023-05-14T23:45:23;13.60;99.90
8611;DHT22;4343;53.648;10.098;2023-05-14T23:47:49;13.60;99.90
8611;DHT22;4343;53.648;10.098;2023-05-14T23:50:15;13.50;99.90
8611;DHT22;4343;53.648;10.098;2023-05-14T23:52:40;13.50;99.90
8611;DHT22;4343;53.648;10.098;2023-05-14T23:55:06;13.50;99.90
8611;DHT22;4343;53.648;10.098;2023-05-14T23:57:31;13.40;99.90
8611;DHT22;4343;53.648;10.098;2023-05-14T23:59:57;13.40;99.90
